createdAt,value
2019-02-25T00:01:45.153Z,8.43
2019-02-25T00:04:41.787Z,8.60
2019-02-25T00:07:40.570Z,8.57
2019-02-25T00:10:36.069Z,8.27
2019-02-25T00:13:32.823Z,7.90
2019-02-25T00:16:28.539Z,8.57
2019-02-25T00:19:25.478Z,9.10
2019-02-25T00:22:21.823Z,9.00
2019-02-25T00:25:18.349Z,8.33
2019-02-25T00:28:15.075Z,8.60
2019-02-25T00:31:11.464Z,9.00
2019-02-25T00:34:06.988Z,9.13
2019-02-25T00:37:04.489Z,9.50
2019-02-25T00:40:00.311Z,8.27
2019-02-25T00:42:57.012Z,7.73
2019-02-25T00:45:51.450Z,7.63
2019-02-25T00:48:48.612Z,8.20
2019-02-25T00:51:43.419Z,8.00
2019-02-25T00:54:39.917Z,8.00
2019-02-25T00:57:36.361Z,7.47
2019-02-25T01:00:33.012Z,8.43
2019-02-25T01:03:28.525Z,8.13
2019-02-25T01:06:25.767Z,7.12
2019-02-25T01:09:22.238Z,7.13
2019-02-25T01:12:18.760Z,7.67
2019-02-25T01:15:14.488Z,7.20
2019-02-25T01:18:12.126Z,8.70
2019-02-25T01:21:09.840Z,6.67
2019-02-25T01:24:06.361Z,8.20
2019-02-25T01:27:02.799Z,7.60
2019-02-25T01:29:58.519Z,7.07
2019-02-25T01:32:56.069Z,7.30
2019-02-25T01:35:52.831Z,7.93
2019-02-25T01:38:49.349Z,8.30
2019-02-25T01:41:44.831Z,8.70
2019-02-25T01:44:41.378Z,8.70
2019-02-25T01:47:38.116Z,8.75
2019-02-25T01:50:34.335Z,7.85
2019-02-25T01:53:29.747Z,6.93
2019-02-25T01:56:27.170Z,8.07
2019-02-25T01:59:22.254Z,6.73
2019-02-25T02:02:18.989Z,7.80
2019-02-25T02:05:14.696Z,7.97
2019-02-25T02:08:12.571Z,7.80
2019-02-25T02:11:09.129Z,9.00
2019-02-25T02:14:05.469Z,7.40
2019-02-25T02:17:01.769Z,6.67
2019-02-25T02:19:57.785Z,7.57
2019-02-25T02:22:52.354Z,6.90
2019-02-25T02:25:49.846Z,6.87
2019-02-25T02:28:45.414Z,7.10
2019-02-25T02:31:41.930Z,7.00
2019-02-25T02:34:37.422Z,7.22
2019-02-25T02:37:34.761Z,6.80
2019-02-25T02:40:29.892Z,7.00
2019-02-25T02:43:26.539Z,6.12
2019-02-25T02:46:35.567Z,6.20
2019-02-25T02:49:32.081Z,6.77
2019-02-25T02:52:27.488Z,7.70
2019-02-25T02:55:23.643Z,7.90
2019-02-25T02:58:18.996Z,7.10
2019-02-25T03:01:15.555Z,7.37
2019-02-25T03:04:11.259Z,6.80
2019-02-25T03:07:08.700Z,6.93
2019-02-25T03:10:05.063Z,7.40
2019-02-25T03:13:02.664Z,7.50
2019-02-25T03:15:58.155Z,6.77
2019-02-25T03:18:55.036Z,7.37
2019-02-25T03:21:47.389Z,7.30
2019-02-25T03:24:43.840Z,7.17
2019-02-25T03:27:40.321Z,6.60
2019-02-25T03:30:38.133Z,6.23
2019-02-25T03:33:33.675Z,7.37
2019-02-25T03:36:30.223Z,6.65
2019-02-25T03:39:26.103Z,6.05
2019-02-25T03:42:22.525Z,6.70
2019-02-25T03:45:18.223Z,6.55
2019-02-25T03:48:15.696Z,6.70
2019-02-25T03:51:11.174Z,6.47
2019-02-25T03:54:07.731Z,6.93
2019-02-25T03:57:03.107Z,6.50
2019-02-25T03:59:59.636Z,7.33
2019-02-25T04:02:55.344Z,6.60
2019-02-25T04:05:51.871Z,6.40
2019-02-25T04:08:48.574Z,6.57
2019-02-25T04:11:44.975Z,7.50
2019-02-25T04:14:41.563Z,6.53
2019-02-25T04:17:38.106Z,7.40
2019-02-25T04:20:33.833Z,7.00
2019-02-25T04:23:30.590Z,7.67
2019-02-25T04:26:27.767Z,6.97
2019-02-25T04:29:25.009Z,6.70
2019-02-25T04:32:21.774Z,6.67
2019-02-25T04:35:18.554Z,6.87
2019-02-25T04:38:15.301Z,6.47
2019-02-25T04:41:10.713Z,6.83
2019-02-25T04:44:06.889Z,6.57
2019-02-25T04:47:01.981Z,6.50
2019-02-25T04:49:58.737Z,6.97
2019-02-25T04:52:53.700Z,7.53
2019-02-25T04:55:49.924Z,6.78
2019-02-25T04:58:45.506Z,6.60
2019-02-25T05:01:42.081Z,7.13
2019-02-25T05:04:37.552Z,6.70
2019-02-25T05:07:34.056Z,6.70
2019-02-25T05:10:30.785Z,7.47
2019-02-25T05:13:28.225Z,6.55
2019-02-25T05:16:24.527Z,7.47
2019-02-25T05:19:22.056Z,7.30
2019-02-25T05:22:17.784Z,7.10
2019-02-25T05:25:15.308Z,7.25
2019-02-25T05:28:10.765Z,6.60
2019-02-25T05:31:07.296Z,6.20
2019-02-25T05:34:02.920Z,6.53
2019-02-25T05:36:59.051Z,7.00
2019-02-25T05:39:55.171Z,6.37
2019-02-25T05:42:51.721Z,7.27
2019-02-25T05:45:47.354Z,7.85
2019-02-25T05:48:45.032Z,7.30
2019-02-25T05:51:40.324Z,7.53
2019-02-25T05:54:37.107Z,8.20
2019-02-25T05:57:32.784Z,7.70
2019-02-25T06:00:30.933Z,7.77
2019-02-25T06:03:27.429Z,8.07
2019-02-25T06:06:23.835Z,7.20
2019-02-25T06:09:21.645Z,7.67
2019-02-25T06:12:17.378Z,7.90
2019-02-25T06:15:13.952Z,16.77
2019-02-25T06:18:10.598Z,7.90
2019-02-25T06:21:08.244Z,7.10
2019-02-25T06:24:04.812Z,8.00
2019-02-25T06:27:01.127Z,7.53
2019-02-25T06:29:57.704Z,7.97
2019-02-25T06:32:54.239Z,7.23
2019-02-25T06:35:49.775Z,8.05
2019-02-25T06:38:46.462Z,7.70
2019-02-25T06:41:42.836Z,8.20
2019-02-25T06:44:39.696Z,7.10
2019-02-25T06:47:34.598Z,8.50
2019-02-25T06:50:31.797Z,7.93
2019-02-25T06:53:28.945Z,7.95
2019-02-25T06:56:23.944Z,7.78
2019-02-25T06:59:20.343Z,7.60
2019-02-25T07:02:15.859Z,7.30
2019-02-25T07:05:22.115Z,7.83
2019-02-25T07:08:23.997Z,7.70
2019-02-25T07:11:30.409Z,6.97
2019-02-25T07:14:36.639Z,8.13
2019-02-25T07:17:54.276Z,8.20
2019-02-25T07:21:05.961Z,8.07
2019-02-25T07:24:17.277Z,8.37
2019-02-25T07:27:24.476Z,8.20
2019-02-25T07:30:46.081Z,7.03
2019-02-25T07:33:57.859Z,8.17
2019-02-25T07:37:13.730Z,8.13
2019-02-25T07:40:22.564Z,6.87
2019-02-25T07:43:30.930Z,8.30
2019-02-25T07:46:48.007Z,7.40
2019-02-25T07:49:58.560Z,6.70
2019-02-25T07:53:15.897Z,6.97
2019-02-25T07:56:32.820Z,7.07
2019-02-25T07:59:58.331Z,7.42
2019-02-25T08:03:21.514Z,6.63
2019-02-25T08:06:37.475Z,6.50
2019-02-25T08:09:52.161Z,7.40
2019-02-25T08:12:57.525Z,6.90
2019-02-25T08:16:06.235Z,6.63
2019-02-25T08:19:23.598Z,7.20
2019-02-25T08:22:30.214Z,7.83
2019-02-25T08:25:40.068Z,6.83
2019-02-25T08:28:52.723Z,5.50
2019-02-25T08:32:01.846Z,6.30
2019-02-25T08:35:27.686Z,5.67
2019-02-25T08:38:40.608Z,6.30
2019-02-25T08:41:46.001Z,6.37
2019-02-25T08:44:46.984Z,5.78
2019-02-25T08:48:02.748Z,5.80
2019-02-25T08:50:56.955Z,5.50
2019-02-25T08:53:53.699Z,4.97
2019-02-25T08:56:50.424Z,4.70
2019-02-25T08:59:46.277Z,5.47
2019-02-25T09:02:44.164Z,4.50
2019-02-25T09:05:39.172Z,5.43
2019-02-25T09:08:35.938Z,4.83
2019-02-25T09:11:32.590Z,5.67
2019-02-25T09:14:30.499Z,5.33
2019-02-25T09:17:25.914Z,4.30
2019-02-25T09:20:22.146Z,5.07
2019-02-25T09:23:19.933Z,5.27
2019-02-25T09:26:17.524Z,5.30
2019-02-25T09:29:12.147Z,4.80
2019-02-25T09:32:12.950Z,5.13
2019-02-25T09:35:08.718Z,4.03
2019-02-25T09:38:06.107Z,4.77
2019-02-25T09:41:01.600Z,3.90
2019-02-25T09:43:59.283Z,4.03
2019-02-25T09:46:54.856Z,3.75
2019-02-25T09:49:51.261Z,4.07
2019-02-25T09:52:47.051Z,3.70
2019-02-25T09:55:43.439Z,4.10
2019-02-25T09:58:39.496Z,3.33
2019-02-25T10:01:42.357Z,3.77
2019-02-25T10:04:38.792Z,3.00
2019-02-25T10:07:35.358Z,3.70
2019-02-25T10:10:31.092Z,3.30
2019-02-25T10:13:28.864Z,3.60
2019-02-25T10:16:24.432Z,3.00
2019-02-25T10:19:21.058Z,3.00
2019-02-25T10:22:17.694Z,3.13
2019-02-25T10:25:14.652Z,3.57
2019-02-25T10:28:09.533Z,29.53
2019-02-25T10:31:07.168Z,3.97
2019-02-25T10:34:03.777Z,6.67
2019-02-25T10:37:00.439Z,3.62
2019-02-25T10:39:56.248Z,3.80
2019-02-25T10:42:52.869Z,3.60
2019-02-25T10:45:48.477Z,4.20
2019-02-25T10:48:44.720Z,4.00
2019-02-25T10:51:41.167Z,3.30
2019-02-25T10:54:37.355Z,3.70
2019-02-25T10:57:36.052Z,3.10
2019-02-25T11:00:35.042Z,3.13
2019-02-25T11:03:29.959Z,3.47
2019-02-25T11:06:27.396Z,2.83
2019-02-25T11:09:35.713Z,3.07
2019-02-25T11:12:32.226Z,3.97
2019-02-25T11:15:27.699Z,3.67
2019-02-25T11:18:26.693Z,4.57
2019-02-25T11:21:20.783Z,3.70
2019-02-25T11:24:20.720Z,4.30
2019-02-25T11:27:15.973Z,4.70
2019-02-25T11:30:14.223Z,5.23
2019-02-25T11:33:07.610Z,3.93
2019-02-25T11:36:04.346Z,4.83
2019-02-25T11:39:02.117Z,4.37
2019-02-25T11:41:56.754Z,4.40
2019-02-25T11:44:54.275Z,5.00
2019-02-25T11:47:49.281Z,4.60
2019-02-25T11:50:45.115Z,4.77
2019-02-25T11:53:40.216Z,4.70
2019-02-25T11:56:36.807Z,5.07
2019-02-25T11:59:32.310Z,4.50
2019-02-25T12:02:29.156Z,4.20
2019-02-25T12:05:25.951Z,4.63
2019-02-25T12:08:22.077Z,4.17
2019-02-25T12:11:17.581Z,4.50
2019-02-25T12:14:14.140Z,3.02
2019-02-25T12:17:10.175Z,3.77
2019-02-25T12:20:07.963Z,4.40
2019-02-25T12:23:03.712Z,3.97
2019-02-25T12:26:02.508Z,4.40
2019-02-25T12:28:59.320Z,4.13
2019-02-25T12:31:55.824Z,3.90
2019-02-25T12:34:52.576Z,3.50
2019-02-25T12:37:48.768Z,3.80
2019-02-25T12:40:44.742Z,3.60
2019-02-25T12:43:41.027Z,3.73
2019-02-25T12:46:37.775Z,3.70
2019-02-25T12:49:34.439Z,3.90
2019-02-25T12:52:30.210Z,4.80
2019-02-25T12:55:27.726Z,4.03
2019-02-25T12:58:23.294Z,3.67
2019-02-25T13:01:19.832Z,3.77
2019-02-25T13:04:15.167Z,3.20
2019-02-25T13:07:11.396Z,3.40
2019-02-25T13:10:06.898Z,2.87
2019-02-25T13:13:03.606Z,3.57
2019-02-25T13:16:01.092Z,3.80
2019-02-25T13:18:56.565Z,3.40
2019-02-25T13:21:52.772Z,3.02
2019-02-25T13:24:47.902Z,3.20
2019-02-25T13:27:45.830Z,3.60
2019-02-25T13:30:41.859Z,2.47
2019-02-25T13:33:38.377Z,2.70
2019-02-25T13:36:36.297Z,2.73
2019-02-25T13:39:32.913Z,3.30
2019-02-25T13:42:28.433Z,3.10
2019-02-25T13:45:25.182Z,3.30
2019-02-25T13:48:20.672Z,3.00
2019-02-25T13:51:17.446Z,2.80
2019-02-25T13:54:11.930Z,2.90
2019-02-25T13:57:09.469Z,3.20
2019-02-25T14:00:04.955Z,3.03
2019-02-25T14:03:03.278Z,3.50
2019-02-25T14:05:58.029Z,3.00
2019-02-25T14:08:55.085Z,3.15
2019-02-25T14:11:52.214Z,3.00
2019-02-25T14:14:48.874Z,3.40
2019-02-25T14:17:46.009Z,3.08
2019-02-25T14:20:42.454Z,3.30
2019-02-25T14:23:40.545Z,3.13
2019-02-25T14:26:38.027Z,3.73
2019-02-25T14:29:33.055Z,3.03
2019-02-25T14:32:30.242Z,2.77
2019-02-25T14:35:28.221Z,3.37
2019-02-25T14:38:23.393Z,3.40
2019-02-25T14:41:21.068Z,3.00
2019-02-25T14:44:15.201Z,3.13
2019-02-25T14:47:20.609Z,3.37
2019-02-25T14:50:08.366Z,3.67
2019-02-25T14:53:06.576Z,3.60
2019-02-25T14:56:03.911Z,3.17
2019-02-25T14:58:56.163Z,2.93
2019-02-25T15:01:52.979Z,3.50
2019-02-25T15:04:48.476Z,3.57
2019-02-25T15:07:44.979Z,3.10
2019-02-25T15:10:42.832Z,3.23
2019-02-25T15:13:39.077Z,3.20
2019-02-25T15:16:33.197Z,3.70
2019-02-25T15:19:31.994Z,3.70
2019-02-25T15:22:28.103Z,3.75
2019-02-25T15:25:21.960Z,2.90
2019-02-25T15:31:11.317Z,3.60
2019-02-25T15:34:06.562Z,3.73
2019-02-25T15:37:02.597Z,2.80
2019-02-25T15:39:59.066Z,3.20
2019-02-25T15:42:54.457Z,3.03
2019-02-25T15:45:50.919Z,2.80
2019-02-25T15:48:46.695Z,2.47
2019-02-25T15:51:45.170Z,2.90
2019-02-25T15:54:39.370Z,3.50
2019-02-25T15:57:37.758Z,2.80
2019-02-25T16:00:34.967Z,3.73
2019-02-25T16:03:32.268Z,4.15
2019-02-25T16:06:29.205Z,4.60
2019-02-25T16:09:25.528Z,5.23
2019-02-25T16:12:23.191Z,3.80
2019-02-25T16:15:17.406Z,3.73
2019-02-25T16:18:14.126Z,3.47
2019-02-25T16:21:11.174Z,3.90
2019-02-25T16:24:08.252Z,3.70
2019-02-25T16:27:02.655Z,4.00
2019-02-25T16:30:00.248Z,3.85
2019-02-25T16:32:54.692Z,4.13
2019-02-25T16:35:52.484Z,4.23
2019-02-25T16:38:51.240Z,5.33
2019-02-25T16:41:45.741Z,5.90
2019-02-25T16:44:40.467Z,5.70
2019-02-25T16:47:37.703Z,5.90
2019-02-25T16:50:34.837Z,5.40
2019-02-25T16:53:34.658Z,6.10
2019-02-25T16:56:26.131Z,6.87
2019-02-25T16:59:24.940Z,5.60
2019-02-25T17:02:19.493Z,5.30
2019-02-25T17:05:14.259Z,5.97
2019-02-25T17:08:12.558Z,5.83
2019-02-25T17:11:06.486Z,5.80
2019-02-25T17:14:03.822Z,6.77
2019-02-25T17:16:58.820Z,7.10
2019-02-25T17:19:56.222Z,6.93
2019-02-25T17:22:51.961Z,6.20
2019-02-25T17:25:48.440Z,6.70
2019-02-25T17:28:44.576Z,6.00
2019-02-25T17:31:41.236Z,7.60
2019-02-25T17:34:37.554Z,7.20
2019-02-25T17:37:36.084Z,7.77
2019-02-25T17:40:29.423Z,7.30
2019-02-25T17:43:27.335Z,6.47
2019-02-25T17:46:22.884Z,6.33
2019-02-25T17:49:21.671Z,7.30
2019-02-25T17:52:18.421Z,6.80
2019-02-25T17:55:14.149Z,6.40
2019-02-25T17:58:09.703Z,6.63
2019-02-25T18:01:06.221Z,6.50
2019-02-25T18:04:02.580Z,6.00
2019-02-25T18:06:58.241Z,7.40
2019-02-25T18:09:55.853Z,7.43
2019-02-25T18:12:51.479Z,7.17
2019-02-25T18:15:49.863Z,5.80
2019-02-25T18:18:45.107Z,6.87
2019-02-25T18:21:43.019Z,5.70
2019-02-25T18:24:37.000Z,5.67
2019-02-25T18:27:35.236Z,6.23
2019-02-25T18:30:32.264Z,6.90
2019-02-25T18:33:29.163Z,9.83
2019-02-25T18:36:26.456Z,7.97
2019-02-25T18:39:25.257Z,17.80
2019-02-25T18:42:20.339Z,23.05
2019-02-25T18:45:16.054Z,26.30
2019-02-25T18:48:11.248Z,12.70
2019-02-25T18:51:09.119Z,9.10
2019-02-25T18:54:04.324Z,8.40
2019-02-25T18:57:01.716Z,7.60
2019-02-25T18:59:59.277Z,8.03
2019-02-25T19:02:54.101Z,8.83
2019-02-25T19:05:51.041Z,9.60
2019-02-25T19:08:47.203Z,8.13
2019-02-25T19:11:45.049Z,8.87
2019-02-25T19:14:39.170Z,7.60
2019-02-25T19:17:35.741Z,8.15
2019-02-25T19:20:32.370Z,8.00
2019-02-25T19:23:28.903Z,8.33
2019-02-25T19:26:25.737Z,7.23
2019-02-25T19:29:21.795Z,6.80
2019-02-25T19:32:17.632Z,7.93
2019-02-25T19:35:13.744Z,7.90
2019-02-25T19:38:13.303Z,7.73
2019-02-25T19:41:13.051Z,7.33
2019-02-25T19:44:05.947Z,6.53
2019-02-25T19:47:01.933Z,8.07
2019-02-25T19:49:59.642Z,7.50
2019-02-25T19:52:54.163Z,7.62
2019-02-25T19:55:53.215Z,7.40
2019-02-25T19:58:45.819Z,6.83
2019-02-25T20:01:42.458Z,7.33
2019-02-25T20:04:42.287Z,7.40
2019-02-25T20:07:36.987Z,10.60
2019-02-25T20:10:34.712Z,8.55
2019-02-25T20:13:30.295Z,8.78
2019-02-25T20:16:29.838Z,7.17
2019-02-25T20:19:22.727Z,7.13
2019-02-25T20:22:20.103Z,7.10
2019-02-25T20:25:16.801Z,8.10
2019-02-25T20:28:11.627Z,7.90
2019-02-25T20:31:10.033Z,8.87
2019-02-25T20:34:06.253Z,8.40
2019-02-25T20:37:03.851Z,8.13
2019-02-25T20:40:00.603Z,8.57
2019-02-25T20:42:57.774Z,8.57
2019-02-25T20:45:54.051Z,9.10
2019-02-25T20:48:48.619Z,8.73
2019-02-25T20:51:45.635Z,10.67
2019-02-25T20:54:43.721Z,10.90
2019-02-25T20:57:38.172Z,11.40
2019-02-25T21:00:39.069Z,9.53
2019-02-25T21:03:32.088Z,8.73
2019-02-25T21:06:28.550Z,7.80
2019-02-25T21:09:24.115Z,6.63
2019-02-25T21:12:21.814Z,6.43
2019-02-25T21:15:16.585Z,7.03
2019-02-25T21:18:13.274Z,7.07
2019-02-25T21:21:13.493Z,7.80
2019-02-25T21:24:08.752Z,5.90
2019-02-25T21:27:06.377Z,5.63
2019-02-25T21:30:01.436Z,5.40
2019-02-25T21:32:58.922Z,6.13
2019-02-25T21:35:52.871Z,5.67
2019-02-25T21:38:51.524Z,5.80
2019-02-25T21:41:45.980Z,5.53
2019-02-25T21:44:46.110Z,5.47
2019-02-25T21:47:38.758Z,5.87
2019-02-25T21:50:36.033Z,5.20
2019-02-25T21:53:31.822Z,5.00
2019-02-25T21:56:28.657Z,6.33
2019-02-25T21:59:25.461Z,5.43
2019-02-25T22:02:21.000Z,5.70
2019-02-25T22:05:19.014Z,5.50
2019-02-25T22:08:13.412Z,5.50
2019-02-25T22:11:14.444Z,5.83
2019-02-25T22:14:06.632Z,5.93
2019-02-25T22:17:03.376Z,5.70
2019-02-25T22:19:58.923Z,7.80
2019-02-25T22:22:59.099Z,5.73
2019-02-25T22:25:52.697Z,6.37
2019-02-25T22:28:51.002Z,5.95
2019-02-25T22:31:45.593Z,5.50
2019-02-25T22:34:42.079Z,5.50
2019-02-25T22:37:38.539Z,5.67
2019-02-25T22:40:36.660Z,5.90
2019-02-25T22:43:31.878Z,5.90
2019-02-25T22:46:30.081Z,6.12
2019-02-25T22:49:26.680Z,6.43
2019-02-25T22:52:22.169Z,8.10
2019-02-25T22:55:18.481Z,8.70
2019-02-25T22:58:13.333Z,7.40
2019-02-25T23:01:09.283Z,7.23
2019-02-25T23:04:04.795Z,6.30
2019-02-25T23:07:02.594Z,6.35
2019-02-25T23:09:58.099Z,6.10
2019-02-25T23:12:54.844Z,5.20
2019-02-25T23:15:51.223Z,5.30
2019-02-25T23:18:47.793Z,5.30
2019-02-25T23:21:41.605Z,5.60
2019-02-25T23:24:42.051Z,5.50
2019-02-25T23:27:36.620Z,4.57
2019-02-25T23:30:32.740Z,5.45
2019-02-25T23:33:28.576Z,9.50
2019-02-25T23:36:26.440Z,9.40
2019-02-25T23:39:20.911Z,9.63
2019-02-25T23:42:18.012Z,6.87
2019-02-25T23:45:15.489Z,6.17
2019-02-25T23:48:11.790Z,6.40
2019-02-25T23:51:07.181Z,6.43
2019-02-25T23:54:03.723Z,5.93
2019-02-25T23:57:01.893Z,5.37
2019-02-25T23:59:55.728Z,5.80
